Time;durP1;ratioP1;P1;durP2;ratioP2;P2;SDS_P1;SDS_P2;PMS_P1;PMS_P2;Temp;Humidity;BMP_temperature;BMP_pressure;BME280_temperature;BME280_humidity;BME280_pressure;Samples;Min_cycle;Max_cycle;Signal;HPM_P1;HPM_P2
2023/01/11 00:01:50;;;;;;;2.53;1.53;;;2.40;87.40;;;;;;5102088;28;20671;-80
2023/01/11 00:04:16;;;;;;;1.63;1.10;;;2.40;88.40;;;;;;5104750;28;20609;-80
2023/01/11 00:06:43;;;;;;;1.60;1.40;;;2.40;87.50;;;;;;5100899;28;20204;-80
2023/01/11 00:09:12;;;;;;;2.60;1.20;;;2.50;88.20;;;;;;5100244;28;20207;-80
2023/01/11 00:11:38;;;;;;;2.30;1.40;;;2.60;87.50;;;;;;5095853;28;20212;-80
2023/01/11 00:14:05;;;;;;;2.03;1.70;;;2.60;84.90;;;;;;5091470;28;20626;-82
2023/01/11 00:16:32;;;;;;;2.37;1.40;;;2.70;85.40;;;;;;5097319;28;20200;-80
2023/01/11 00:18:59;;;;;;;3.87;2.23;;;2.70;85.40;;;;;;5094616;28;20228;-80
2023/01/11 00:21:25;;;;;;;2.23;1.50;;;2.70;84.80;;;;;;5087852;28;20210;-80
2023/01/11 00:23:52;;;;;;;3.60;1.40;;;2.80;82.90;;;;;;5091454;28;20228;-80
2023/01/11 00:26:20;;;;;;;2.93;1.50;;;2.80;82.40;;;;;;5091595;27;20231;-80
2023/01/11 00:28:48;;;;;;;4.83;1.53;;;2.70;82.90;;;;;;5093852;28;20192;-80
2023/01/11 00:31:15;;;;;;;3.27;1.77;;;2.80;82.80;;;;;;5094276;28;20226;-80
2023/01/11 00:33:41;;;;;;;2.17;1.43;;;2.80;82.70;;;;;;5096062;28;20219;-80
2023/01/11 00:36:09;;;;;;;1.90;1.40;;;2.80;82.80;;;;;;5095151;28;20221;-80
2023/01/11 00:38:50;;;;;;;2.33;1.60;;;2.80;86.10;;;;;;5094924;28;20291;-79
2023/01/11 00:49:31;;;;;;;2.97;1.53;;;2.60;87.50;;;;;;5094648;28;20218;-80
2023/01/11 00:51:59;;;;;;;1.87;1.60;;;2.60;87.50;;;;;;5101448;28;20676;-80
2023/01/11 00:54:25;;;;;;;2.10;1.50;;;2.60;87.50;;;;;;5093374;28;20208;-80
2023/01/11 00:56:52;;;;;;;2.00;1.63;;;2.70;87.50;;;;;;5101403;28;20691;-80
2023/01/11 00:59:20;;;;;;;2.77;1.60;;;2.70;87.50;;;;;;5098594;28;20443;-80
2023/01/11 01:01:47;;;;;;;3.70;1.20;;;2.70;87.50;;;;;;5093529;28;20207;-79
2023/01/11 01:04:14;;;;;;;1.80;1.40;;;2.70;87.60;;;;;;5096685;28;20223;-80
2023/01/11 01:06:40;;;;;;;1.83;1.10;;;2.70;89.20;;;;;;5101204;28;20204;-79
2023/01/11 01:09:07;;;;;;;2.17;1.30;;;2.70;87.60;;;;;;5096057;28;20211;-80
2023/01/11 01:11:34;;;;;;;2.10;1.17;;;2.70;89.20;;;;;;5090319;28;20193;-80
2023/01/11 01:16:48;;;;;;;2.27;1.90;;;2.80;90.50;;;;;;5096396;28;20285;-80
2023/01/11 01:19:15;;;;;;;2.17;1.30;;;2.80;90.10;;;;;;5104321;28;20216;-82
2023/01/11 01:21:42;;;;;;;2.20;1.30;;;2.80;87.80;;;;;;5099782;27;20205;-80
2023/01/11 01:24:09;;;;;;;1.47;1.37;;;2.90;89.70;;;;;;5100655;28;20232;-81
2023/01/11 01:26:36;;;;;;;1.83;1.40;;;2.90;90.50;;;;;;5097549;28;20714;-80
2023/01/11 01:29:02;;;;;;;2.67;1.50;;;3.00;89.30;;;;;;5104493;28;20208;-80
2023/01/11 01:31:29;;;;;;;1.90;1.33;;;3.00;89.70;;;;;;5095380;28;20204;-82
2023/01/11 01:33:57;;;;;;;2.00;1.30;;;3.10;90.00;;;;;;5098304;28;20581;-81
2023/01/11 01:36:24;;;;;;;1.67;1.27;;;3.10;87.80;;;;;;5099875;27;20222;-82
2023/01/11 01:38:51;;;;;;;1.90;1.40;;;3.20;89.60;;;;;;5096989;28;20211;-81
2023/01/11 01:41:18;;;;;;;1.77;1.23;;;3.30;89.30;;;;;;5095592;27;20207;-82
2023/01/11 01:43:49;;;;;;;2.07;1.30;;;3.30;89.00;;;;;;5099108;28;20206;-82
2023/01/11 01:46:16;;;;;;;1.33;1.23;;;3.30;90.30;;;;;;5098240;28;20209;-82
2023/01/11 01:48:45;;;;;;;2.20;1.40;;;3.40;90.30;;;;;;5091184;28;20553;-81
2023/01/11 01:51:18;;;;;;;1.73;1.40;;;3.30;90.30;;;;;;5093152;28;20418;-81
2023/01/11 01:53:48;;;;;;;1.00;1.00;;;3.20;91.10;;;;;;5094874;28;20659;-82
2023/01/11 01:56:19;;;;;;;1.53;1.27;;;3.30;90.80;;;;;;5094608;28;20648;-82
2023/01/11 01:58:51;;;;;;;1.30;1.20;;;3.30;90.60;;;;;;5096539;28;20213;-82
2023/01/11 02:04:08;;;;;;;1.40;1.03;;;3.30;91.20;;;;;;5100400;28;20251;-81
2023/01/11 02:06:37;;;;;;;2.30;1.30;;;3.30;92.00;;;;;;5093602;28;20212;-82
2023/01/11 02:09:11;;;;;;;2.90;1.03;;;3.40;92.70;;;;;;5092498;28;20211;-82
2023/01/11 02:11:42;;;;;;;0.90;0.90;;;3.40;93.20;;;;;;5104090;28;20207;-81
2023/01/11 02:14:12;;;;;;;1.20;1.10;;;3.40;94.10;;;;;;5101834;28;20235;-82
2023/01/11 02:16:39;;;;;;;1.33;1.23;;;3.30;94.70;;;;;;5097221;28;20208;-82
2023/01/11 02:19:09;;;;;;;2.50;1.30;;;3.40;95.20;;;;;;5102781;28;20649;-81
2023/01/11 02:21:53;;;;;;;1.83;1.20;;;3.30;95.70;;;;;;5102133;28;20698;-83
2023/01/11 02:24:46;;;;;;;3.20;1.20;;;3.30;96.30;;;;;;5095907;28;20675;-81
2023/01/11 02:27:28;;;;;;;0.80;0.80;;;3.20;97.20;;;;;;5100442;28;20235;-82
2023/01/11 02:30:09;;;;;;;1.20;1.10;;;3.20;97.60;;;;;;5101312;28;20200;-81
2023/01/11 02:32:49;;;;;;;1.20;1.10;;;3.20;98.10;;;;;;5098724;28;20212;-82
2023/01/11 02:35:24;;;;;;;2.10;0.90;;;3.30;98.40;;;;;;5098718;27;20583;-82
2023/01/11 02:37:59;;;;;;;0.97;0.97;;;3.20;98.60;;;;;;5098295;28;20641;-82
2023/01/11 02:40:35;;;;;;;0.90;0.80;;;3.40;98.90;;;;;;5106759;28;20201;-82
2023/01/11 02:46:00;;;;;;;1.10;1.00;;;3.40;98.70;;;;;;5101073;28;20239;-82
2023/01/11 02:48:32;;;;;;;1.60;1.20;;;3.40;98.90;;;;;;5100974;28;20242;-82
2023/01/11 02:51:05;;;;;;;1.30;1.13;;;3.30;99.20;;;;;;5100343;28;20204;-82
2023/01/11 02:53:38;;;;;;;2.30;1.03;;;3.30;99.40;;;;;;5099503;28;20196;-82
2023/01/11 02:56:09;;;;;;;2.13;1.00;;;3.40;99.60;;;;;;5099789;28;20204;-82
2023/01/11 02:58:39;;;;;;;2.03;1.10;;;3.40;99.90;;;;;;5098683;28;20196;-82
2023/01/11 03:01:09;;;;;;;1.63;0.90;;;3.40;99.90;;;;;;5093916;27;20204;-82
2023/01/11 03:03:35;;;;;;;1.10;1.00;;;3.50;99.70;;;;;;5097405;28;20541;-82
2023/01/11 03:06:05;;;;;;;1.00;0.90;;;3.50;99.80;;;;;;5096567;28;20573;-82
2023/01/11 03:08:44;;;;;;;1.53;0.80;;;3.60;99.70;;;;;;5100535;28;20208;-81
2023/01/11 03:12:50;;;;;;;4.33;1.00;;;3.60;99.70;;;;;;5097657;27;20203;-81
2023/01/11 03:14:06;;;;;;;2.30;0.80;;;3.60;99.90;;;;;;5100779;28;20208;-82
2023/01/11 03:16:41;;;;;;;2.17;0.70;;;3.60;99.90;;;;;;5100092;28;20271;-82
2023/01/11 03:19:24;;;;;;;0.80;0.80;;;3.60;99.90;;;;;;5099527;28;20199;-82
2023/01/11 03:21:59;;;;;;;1.67;1.20;;;3.60;99.90;;;;;;5097585;28;20204;-82
2023/01/11 03:24:33;;;;;;;1.20;1.10;;;3.60;99.90;;;;;;5097407;28;20235;-82
2023/01/11 03:27:10;;;;;;;1.60;1.20;;;3.70;99.90;;;;;;5101754;28;20249;-81
2023/01/11 03:29:43;;;;;;;1.40;1.27;;;3.60;99.90;;;;;;5096918;28;20204;-81
2023/01/11 03:32:22;;;;;;;0.90;0.90;;;3.70;99.90;;;;;;5095320;28;20226;-82
2023/01/11 03:34:58;;;;;;;1.07;1.00;;;3.70;99.90;;;;;;5098394;28;20203;-82
2023/01/11 03:37:31;;;;;;;1.17;1.00;;;3.70;99.90;;;;;;5100812;28;20214;-82
2023/01/11 03:40:02;;;;;;;1.03;0.97;;;3.70;99.90;;;;;;5099694;28;20679;-82
2023/01/11 03:42:31;;;;;;;0.90;0.90;;;3.80;99.90;;;;;;5094351;28;20207;-83
2023/01/11 03:45:01;;;;;;;1.00;0.80;;;3.80;99.90;;;;;;5098769;28;20688;-82
2023/01/11 03:47:31;;;;;;;1.70;1.00;;;3.80;99.90;;;;;;5096991;28;20200;-81
2023/01/11 03:50:02;;;;;;;1.03;0.93;;;3.80;99.60;;;;;;5098046;28;20201;-82
2023/01/11 03:52:34;;;;;;;1.00;0.90;;;3.90;99.40;;;;;;5093855;28;20231;-82
2023/01/11 03:55:05;;;;;;;1.57;1.07;;;3.90;99.20;;;;;;5106372;28;20213;-82
2023/01/11 03:57:36;;;;;;;2.20;0.90;;;3.90;99.10;;;;;;5095424;28;20196;-82
2023/01/11 04:00:04;;;;;;;1.50;1.10;;;3.90;99.40;;;;;;5094636;28;20227;-82
2023/01/11 04:02:38;;;;;;;1.40;1.00;;;3.80;99.60;;;;;;5090914;28;20227;-82
2023/01/11 04:05:07;;;;;;;3.13;1.00;;;3.90;99.50;;;;;;5096636;28;20219;-81
2023/01/11 04:07:33;;;;;;;1.53;0.90;;;3.90;99.70;;;;;;5094797;28;20192;-82
2023/01/11 04:10:00;;;;;;;2.07;0.90;;;3.90;99.60;;;;;;5090119;28;20201;-81
2023/01/11 04:12:27;;;;;;;1.10;1.10;;;4.00;99.50;;;;;;5095616;28;20207;-81
2023/01/11 04:14:54;;;;;;;2.73;0.83;;;4.00;99.60;;;;;;5090968;28;20678;-81
2023/01/11 04:17:21;;;;;;;1.30;0.93;;;4.10;99.80;;;;;;5099049;28;20203;-83
2023/01/11 04:19:49;;;;;;;5.33;2.10;;;4.10;99.50;;;;;;5093464;28;20219;-82
2023/01/11 04:22:16;;;;;;;3.83;2.30;;;4.10;99.50;;;;;;5095141;28;20212;-82
2023/01/11 04:24:42;;;;;;;4.87;2.47;;;4.10;99.80;;;;;;5095462;28;20572;-82
2023/01/11 04:27:09;;;;;;;3.37;1.90;;;4.30;99.60;;;;;;5101524;28;20709;-82
2023/01/11 04:29:36;;;;;;;1.80;1.50;;;4.30;99.30;;;;;;5097673;27;20211;-84
2023/01/11 04:32:03;;;;;;;2.20;1.20;;;4.30;99.30;;;;;;5104359;28;20203;-84
2023/01/11 04:34:30;;;;;;;1.30;1.20;;;4.40;99.30;;;;;;5095073;28;20644;-82
2023/01/11 04:36:58;;;;;;;1.23;1.10;;;4.40;99.00;;;;;;5099669;28;20192;-82
2023/01/11 04:39:25;;;;;;;1.70;1.33;;;4.40;99.30;;;;;;5097687;28;20207;-82
2023/01/11 04:44:36;;;;;;;3.63;1.40;;;4.30;99.90;;;;;;5094070;28;20293;-85
2023/01/11 04:47:02;;;;;;;0.90;0.90;;;4.30;99.90;;;;;;5098673;28;20517;-83
2023/01/11 04:49:29;;;;;;;3.60;1.40;;;4.30;99.90;;;;;;5098044;28;20212;-84
2023/01/11 04:51:57;;;;;;;2.40;1.10;;;4.30;99.90;;;;;;5098245;28;20200;-84
2023/01/11 04:54:24;;;;;;;2.87;1.10;;;4.30;99.90;;;;;;5093755;28;20598;-85
2023/01/11 04:56:51;;;;;;;3.13;1.00;;;4.40;99.90;;;;;;5100347;28;20357;-84
2023/01/11 04:59:17;;;;;;;1.37;1.17;;;4.50;99.90;;;;;;5089892;28;20219;-84
2023/01/11 05:01:44;;;;;;;1.60;0.90;;;4.50;99.90;;;;;;5091171;28;20204;-84
2023/01/11 05:04:11;;;;;;;1.90;0.90;;;4.50;99.80;;;;;;5092435;28;20212;-84
2023/01/11 05:06:38;;;;;;;0.90;0.90;;;4.50;99.50;;;;;;5098904;28;20227;-84
2023/01/11 05:09:07;;;;;;;2.13;1.10;;;4.50;99.10;;;;;;5088797;28;20208;-84
2023/01/11 05:11:33;;;;;;;0.80;0.80;;;4.60;98.70;;;;;;5097615;28;20208;-85
2023/01/11 05:14:00;;;;;;;1.57;0.97;;;4.70;98.40;;;;;;5094606;28;20204;-84
2023/01/11 05:16:27;;;;;;;1.00;0.90;;;4.70;97.90;;;;;;5103977;28;20219;-83
2023/01/11 05:18:55;;;;;;;0.93;0.93;;;4.80;97.80;;;;;;5100376;28;20207;-84
2023/01/11 05:21:24;;;;;;;1.07;1.00;;;4.80;97.60;;;;;;5093485;28;20676;-84
2023/01/11 05:23:51;;;;;;;0.73;0.73;;;4.80;97.70;;;;;;5097067;28;20228;-84
2023/01/11 05:26:22;;;;;;;2.60;1.10;;;4.80;97.50;;;;;;5096335;28;20262;-83
2023/01/11 05:28:50;;;;;;;1.20;0.93;;;4.80;97.10;;;;;;5096087;28;20212;-84
2023/01/11 05:31:17;;;;;;;1.27;1.20;;;4.90;96.90;;;;;;5098186;28;20664;-84
2023/01/11 05:33:44;;;;;;;0.97;0.90;;;4.90;96.50;;;;;;5096345;28;20203;-84
2023/01/11 05:36:13;;;;;;;1.07;1.07;;;4.90;96.40;;;;;;5098760;28;20208;-84
2023/01/11 05:38:40;;;;;;;0.80;0.80;;;4.90;96.00;;;;;;5095136;28;20641;-84
2023/01/11 05:41:08;;;;;;;1.30;1.20;;;5.00;95.50;;;;;;5098803;28;20215;-84
2023/01/11 05:45:27;;;;;;;1.00;0.90;;;5.00;95.10;;;;;;5094434;28;20204;-84
2023/01/11 05:46:25;;;;;;;2.70;0.97;;;5.00;95.10;;;;;;5089749;28;21483;-85
2023/01/11 05:48:54;;;;;;;1.07;1.00;;;5.00;95.40;;;;;;5094294;28;20205;-83
2023/01/11 05:51:22;;;;;;;1.10;1.10;;;5.00;95.10;;;;;;5097509;28;20197;-82
2023/01/11 05:53:50;;;;;;;0.90;0.90;;;5.10;95.10;;;;;;5095445;28;20667;-85
2023/01/11 05:56:17;;;;;;;1.20;1.20;;;5.20;94.60;;;;;;5095037;28;20284;-84
2023/01/11 05:58:47;;;;;;;1.70;1.07;;;5.20;94.90;;;;;;5096404;28;20208;-84
2023/01/11 06:01:14;;;;;;;2.50;1.13;;;5.10;94.40;;;;;;5092051;28;20533;-84
2023/01/11 06:03:41;;;;;;;1.20;1.10;;;5.20;94.10;;;;;;5088820;28;20205;-83
2023/01/11 06:06:08;;;;;;;1.33;1.00;;;5.10;94.20;;;;;;5097678;28;20574;-83
2023/01/11 06:08:35;;;;;;;1.57;1.17;;;5.10;94.60;;;;;;5093705;28;20275;-84
2023/01/11 06:11:01;;;;;;;1.27;0.80;;;5.10;94.00;;;;;;5095386;28;20197;-83
2023/01/11 06:13:29;;;;;;;0.90;0.90;;;5.10;94.00;;;;;;5099353;28;20208;-83
2023/01/11 06:15:59;;;;;;;1.20;1.10;;;5.20;93.90;;;;;;5093249;28;20648;-83
2023/01/11 06:18:27;;;;;;;0.90;0.90;;;5.20;94.10;;;;;;5099253;28;20229;-83
2023/01/11 06:20:54;;;;;;;1.07;0.97;;;5.20;93.80;;;;;;5093729;28;20205;-82
2023/01/11 06:23:22;;;;;;;0.90;0.90;;;5.20;94.10;;;;;;5096967;28;20227;-85
2023/01/11 06:25:49;;;;;;;1.53;1.17;;;5.20;94.10;;;;;;5096950;27;20243;-83
2023/01/11 06:28:16;;;;;;;1.43;1.10;;;5.30;93.40;;;;;;5101792;28;20199;-83
2023/01/11 06:30:43;;;;;;;0.93;0.90;;;5.30;93.10;;;;;;5103066;28;20204;-83
2023/01/11 06:33:11;;;;;;;1.10;1.10;;;5.30;93.10;;;;;;5098643;28;21413;-84
2023/01/11 06:35:39;;;;;;;1.43;1.33;;;5.30;93.30;;;;;;5091897;28;20204;-85
2023/01/11 06:38:08;;;;;;;1.00;1.00;;;5.30;93.20;;;;;;5097758;28;20542;-83
2023/01/11 06:40:35;;;;;;;1.60;1.07;;;5.30;93.30;;;;;;5093857;28;20200;-83
2023/01/11 06:43:02;;;;;;;1.10;1.00;;;5.30;93.20;;;;;;5098945;28;20211;-82
2023/01/11 06:45:30;;;;;;;1.40;1.10;;;5.30;93.10;;;;;;5094871;28;20571;-83
2023/01/11 06:47:56;;;;;;;1.00;0.80;;;5.40;93.10;;;;;;5098414;28;20199;-84
2023/01/11 06:50:25;;;;;;;1.00;1.00;;;5.40;93.40;;;;;;5100975;27;20205;-84
2023/01/11 06:52:53;;;;;;;0.80;0.80;;;5.40;93.20;;;;;;5103823;28;20196;-84
2023/01/11 06:55:20;;;;;;;2.33;1.37;;;5.40;93.10;;;;;;5100119;28;20204;-84
2023/01/11 06:57:47;;;;;;;1.97;1.13;;;5.50;92.70;;;;;;5092890;28;20203;-84
2023/01/11 07:00:14;;;;;;;1.73;1.27;;;5.50;93.10;;;;;;5094037;28;20667;-84
2023/01/11 07:02:41;;;;;;;2.10;1.37;;;5.50;93.40;;;;;;5096965;28;20580;-84
2023/01/11 07:05:09;;;;;;;1.60;1.50;;;5.50;93.60;;;;;;5094522;28;20208;-84
2023/01/11 07:07:37;;;;;;;1.30;1.20;;;5.50;93.60;;;;;;5097938;27;20221;-83
2023/01/11 07:10:05;;;;;;;2.80;1.67;;;5.50;93.20;;;;;;5096304;28;20200;-83
2023/01/11 07:12:33;;;;;;;1.10;1.00;;;5.50;93.30;;;;;;5097483;28;20573;-84
2023/01/11 07:14:59;;;;;;;1.40;1.30;;;5.50;93.40;;;;;;5092987;28;20204;-84
2023/01/11 07:17:26;;;;;;;3.22;1.20;;;5.60;93.50;;;;;;5100026;27;20227;-84
2023/01/11 07:19:53;;;;;;;2.22;1.27;;;5.60;93.00;;;;;;5101210;27;20675;-85
2023/01/11 07:22:21;;;;;;;1.50;1.33;;;5.60;92.90;;;;;;5099211;28;20200;-84
2023/01/11 07:24:49;;;;;;;1.70;1.38;;;5.70;92.90;;;;;;5103484;27;20220;-84
2023/01/11 07:27:16;;;;;;;1.50;1.40;;;5.70;92.40;;;;;;5092608;27;20255;-84
2023/01/11 07:29:43;;;;;;;1.58;1.42;;;5.70;92.40;;;;;;5096695;28;20202;-84
2023/01/11 07:32:10;;;;;;;2.03;1.20;;;5.80;91.80;;;;;;5097061;28;20681;-84
2023/01/11 07:34:37;;;;;;;1.30;1.20;;;5.80;91.30;;;;;;5096484;28;20276;-84
2023/01/11 07:37:04;;;;;;;1.58;1.27;;;5.80;91.40;;;;;;5100119;27;20203;-85
2023/01/11 07:39:31;;;;;;;1.50;1.13;;;5.90;91.00;;;;;;5099285;27;20201;-85
2023/01/11 07:44:43;;;;;;;1.50;1.40;;;5.90;91.50;;;;;;5107989;27;20207;-85
2023/01/11 07:47:10;;;;;;;1.23;1.17;;;5.90;92.00;;;;;;5102498;28;20230;-84
2023/01/11 07:49:36;;;;;;;1.92;1.33;;;5.90;92.20;;;;;;5097265;28;20205;-84
2023/01/11 07:52:03;;;;;;;1.60;1.38;;;6.00;92.20;;;;;;5099973;27;20575;-84
2023/01/11 07:54:30;;;;;;;1.30;1.20;;;6.10;92.00;;;;;;5099437;27;20315;-84
2023/01/11 07:56:58;;;;;;;1.95;1.10;;;6.20;91.80;;;;;;5107159;28;20207;-85
2023/01/11 07:59:25;;;;;;;1.98;1.17;;;6.20;92.00;;;;;;5096487;28;20706;-83
2023/01/11 08:01:52;;;;;;;1.30;1.20;;;6.30;91.90;;;;;;5100914;28;20568;-84
2023/01/11 08:04:19;;;;;;;1.40;1.30;;;6.40;91.30;;;;;;5102252;28;20555;-85
2023/01/11 08:06:46;;;;;;;1.42;1.20;;;6.40;91.50;;;;;;5104877;27;20224;-84
2023/01/11 08:09:13;;;;;;;1.25;1.15;;;6.40;91.40;;;;;;5105088;27;20261;-84
2023/01/11 08:14:41;;;;;;;1.35;1.25;;;6.60;91.20;;;;;;5101728;28;20781;-85
2023/01/11 08:17:10;;;;;;;1.23;1.10;;;6.70;90.80;;;;;;5104770;27;20207;-85
2023/01/11 08:19:36;;;;;;;1.42;1.33;;;6.70;90.90;;;;;;5101206;28;20268;-84
2023/01/11 08:22:04;;;;;;;2.20;1.00;;;6.60;90.80;;;;;;5100315;28;20202;-85
2023/01/11 08:24:31;;;;;;;1.48;1.17;;;6.60;91.00;;;;;;5105704;27;20203;-85
2023/01/11 08:26:58;;;;;;;2.33;1.33;;;6.70;91.50;;;;;;5093629;27;20226;-83
2023/01/11 08:29:26;;;;;;;3.47;1.50;;;6.70;92.30;;;;;;5101721;28;20208;-84
2023/01/11 08:31:53;;;;;;;2.55;1.10;;;6.70;92.90;;;;;;5094417;27;20216;-85
2023/01/11 08:34:20;;;;;;;5.93;1.63;;;6.70;92.30;;;;;;5100477;28;20290;-85
2023/01/11 08:36:47;;;;;;;7.85;1.80;;;6.70;91.90;;;;;;5092440;28;20227;-85
2023/01/11 08:39:14;;;;;;;2.22;1.63;;;6.70;91.80;;;;;;5099153;28;20196;-85
2023/01/11 08:41:40;;;;;;;1.90;1.65;;;6.80;91.90;;;;;;5094227;28;20222;-85
2023/01/11 08:44:09;;;;;;;3.67;1.23;;;7.00;91.30;;;;;;5098416;28;20236;-85
2023/01/11 08:46:37;;;;;;;7.35;1.60;;;7.00;91.10;;;;;;5096550;28;20228;-85
2023/01/11 08:49:10;;;;;;;1.60;1.50;;;7.00;91.20;;;;;;5104056;28;20693;-85
2023/01/11 08:51:36;;;;;;;4.53;1.60;;;7.10;91.50;;;;;;5096889;28;20208;-85
2023/01/11 08:54:07;;;;;;;1.60;1.50;;;7.10;91.10;;;;;;5101137;28;20214;-85
2023/01/11 08:56:34;;;;;;;3.03;1.40;;;7.20;90.80;;;;;;5097195;28;20681;-85
2023/01/11 08:59:01;;;;;;;1.63;1.10;;;7.30;87.10;;;;;;5095317;28;20208;-84
2023/01/11 09:01:28;;;;;;;1.45;1.20;;;7.50;83.00;;;;;;5097173;28;20743;-83
2023/01/11 09:03:56;;;;;;;1.63;1.23;;;7.60;81.90;;;;;;5103206;28;20207;-84
2023/01/11 09:06:23;;;;;;;3.70;1.13;;;7.70;81.00;;;;;;5105093;28;20268;-84
2023/01/11 09:08:50;;;;;;;1.30;1.20;;;7.70;82.20;;;;;;5102168;28;20235;-84
2023/01/11 09:14:01;;;;;;;1.35;1.00;;;7.90;83.60;;;;;;5106921;28;20207;-84
2023/01/11 09:16:28;;;;;;;1.92;1.05;;;8.10;81.60;;;;;;5104789;28;20202;-85
2023/01/11 09:18:56;;;;;;;2.90;1.00;;;8.30;79.50;;;;;;5100125;27;20192;-85
2023/01/11 09:21:23;;;;;;;1.27;1.15;;;8.60;76.10;;;;;;5106934;28;20208;-84
2023/01/11 09:23:50;;;;;;;0.95;0.95;;;8.80;67.10;;;;;;5100866;28;20220;-86
2023/01/11 09:26:16;;;;;;;0.95;0.95;;;8.90;69.20;;;;;;5104885;28;20237;-84
2023/01/11 09:28:43;;;;;;;1.98;1.27;;;9.20;64.60;;;;;;5101030;27;20561;-84
2023/01/11 09:31:10;;;;;;;1.92;1.13;;;9.30;59.50;;;;;;5105261;28;20195;-84
2023/01/11 09:33:38;;;;;;;1.50;0.90;;;9.30;57.70;;;;;;5106182;28;20200;-84
2023/01/11 09:36:07;;;;;;;1.23;1.00;;;9.50;55.30;;;;;;5105740;28;20214;-84
2023/01/11 09:38:35;;;;;;;0.98;0.90;;;9.70;55.30;;;;;;5097269;28;20203;-84
2023/01/11 09:41:11;;;;;;;1.17;1.10;;;9.70;52.60;;;;;;5099492;28;20208;-84
2023/01/11 09:43:45;;;;;;;2.38;1.10;;;9.70;54.50;;;;;;5098084;28;20619;-84
2023/01/11 09:46:13;;;;;;;3.13;1.00;;;9.60;56.60;;;;;;5107878;28;20201;-83
2023/01/11 09:48:46;;;;;;;1.15;1.05;;;9.50;57.20;;;;;;5108076;27;20280;-84
2023/01/11 09:51:17;;;;;;;1.10;1.10;;;9.60;55.90;;;;;;5098644;28;20200;-83
2023/01/11 09:53:49;;;;;;;3.60;1.00;;;9.70;58.40;;;;;;5103989;27;20653;-84
2023/01/11 09:56:23;;;;;;;1.20;1.10;;;9.80;53.30;;;;;;5103427;28;20288;-84
2023/01/11 09:59:19;;;;;;;1.52;0.95;;;10.20;51.60;;;;;;5106852;27;20583;-85
2023/01/11 10:01:52;;;;;;;2.55;1.17;;;10.40;50.70;;;;;;5096379;27;20235;-84
2023/01/11 10:04:39;;;;;;;1.70;1.00;;;10.70;47.40;;;;;;5101821;28;20200;-84
2023/01/11 10:07:41;;;;;;;1.02;1.00;;;10.80;44.50;;;;;;5099935;28;20216;-84
2023/01/11 10:10:30;;;;;;;1.10;1.00;;;10.80;45.30;;;;;;5097133;28;20203;-84
2023/01/11 10:13:08;;;;;;;1.27;1.10;;;10.80;43.20;;;;;;5101093;28;20197;-85
2023/01/11 10:15:43;;;;;;;0.80;0.80;;;10.80;45.10;;;;;;5099924;28;20199;-83
2023/01/11 10:18:34;;;;;;;1.25;1.00;;;10.90;43.60;;;;;;5097216;28;20203;-85
2023/01/11 10:21:08;;;;;;;1.00;0.77;;;10.80;43.50;;;;;;5107936;27;20604;-84
2023/01/11 10:23:47;;;;;;;1.05;1.00;;;10.80;42.60;;;;;;5099465;28;20307;-84
2023/01/11 10:26:26;;;;;;;0.90;0.90;;;10.80;44.70;;;;;;5104812;27;20238;-82
2023/01/11 10:32:31;;;;;;;1.45;0.93;;;10.80;46.00;;;;;;5106088;27;20956;-85
2023/01/11 10:35:23;;;;;;;1.00;1.00;;;10.60;44.80;;;;;;5111165;28;20654;-85
2023/01/11 10:38:09;;;;;;;0.95;0.95;;;10.40;44.50;;;;;;5103879;28;20631;-84
2023/01/11 10:43:28;;;;;;;1.83;1.30;;;10.20;47.00;;;;;;5107118;28;20199;-85
2023/01/11 10:45:57;;;;;;;1.17;1.08;;;10.20;47.00;;;;;;5103075;28;20243;-84
2023/01/11 10:48:30;;;;;;;1.75;1.08;;;10.30;47.10;;;;;;5105791;28;20205;-84
2023/01/11 10:51:03;;;;;;;1.30;1.17;;;10.20;48.50;;;;;;5106374;28;20219;-83
2023/01/11 10:53:36;;;;;;;1.65;0.90;;;10.20;51.30;;;;;;5110972;28;20288;-84
2023/01/11 10:56:12;;;;;;;1.73;1.17;;;10.20;47.00;;;;;;5108525;28;20193;-85
2023/01/11 10:59:12;;;;;;;3.40;1.27;;;10.20;47.00;;;;;;5107202;27;20191;-85
2023/01/11 11:02:01;;;;;;;1.95;1.02;;;10.40;47.20;;;;;;5098150;28;20287;-84
2023/01/11 11:04:49;;;;;;;3.13;1.10;;;10.70;47.40;;;;;;5107034;28;20362;-84
2023/01/11 11:07:21;;;;;;;2.67;1.33;;;11.10;44.30;;;;;;5112509;27;20195;-84
2023/01/11 11:09:55;;;;;;;1.33;1.00;;;11.30;42.00;;;;;;5107856;28;20583;-84
2023/01/11 11:12:38;;;;;;;1.20;1.13;;;11.40;37.60;;;;;;5103986;28;20648;-84
2023/01/11 11:15:13;;;;;;;1.77;1.00;;;11.30;37.70;;;;;;5107772;27;20196;-84
2023/01/11 11:17:44;;;;;;;0.88;0.88;;;11.20;37.90;;;;;;5108957;28;20206;-85
2023/01/11 11:20:15;;;;;;;1.48;1.20;;;11.10;39.60;;;;;;5105513;28;20235;-84
2023/01/11 11:22:43;;;;;;;1.33;1.13;;;10.90;43.00;;;;;;5096922;28;20676;-86
2023/01/11 11:25:17;;;;;;;1.73;1.17;;;11.10;40.80;;;;;;5083682;28;20201;-84
2023/01/11 11:27:48;;;;;;;2.78;1.40;;;11.20;38.50;;;;;;5084778;28;20667;-84
2023/01/11 11:30:27;;;;;;;1.20;1.02;;;11.30;38.80;;;;;;5079408;28;20235;-84
2023/01/11 11:32:59;;;;;;;2.35;1.30;;;11.40;38.00;;;;;;5079169;28;20601;-84
2023/01/11 11:39:04;;;;;;;1.63;1.10;;;11.40;40.70;;;;;;5058006;28;20621;-84
2023/01/11 11:41:48;;;;;;;1.27;1.17;;;11.50;38.30;;;;;;5081798;28;20205;-85
2023/01/11 11:44:23;;;;;;;2.00;1.38;;;11.50;40.00;;;;;;5065251;28;20247;-84
2023/01/11 11:47:20;;;;;;;1.45;1.27;;;11.60;38.50;;;;;;5068775;28;20198;-84
2023/01/11 11:49:47;;;;;;;2.90;0.95;;;11.60;38.00;;;;;;5070432;28;20282;-84
2023/01/11 11:52:17;;;;;;;1.50;1.20;;;11.60;38.60;;;;;;5072595;28;20208;-84
2023/01/11 11:54:52;;;;;;;5.10;1.30;;;11.60;38.20;;;;;;5066807;28;20568;-85
2023/01/11 11:57:24;;;;;;;1.38;1.25;;;11.70;39.60;;;;;;5068782;28;20205;-85
2023/01/11 12:00:04;;;;;;;1.45;1.30;;;11.70;39.10;;;;;;5067677;28;20224;-84
2023/01/11 12:02:34;;;;;;;1.40;1.17;;;11.70;39.00;;;;;;5067261;28;20206;-85
2023/01/11 12:05:11;;;;;;;1.20;1.10;;;11.70;39.10;;;;;;5069611;28;20227;-84
2023/01/11 12:07:55;;;;;;;2.03;1.25;;;11.70;38.50;;;;;;5070074;28;20223;-85
2023/01/11 12:10:23;;;;;;;1.23;1.13;;;11.50;39.70;;;;;;5061050;28;20225;-85
2023/01/11 12:12:53;;;;;;;2.25;1.00;;;11.50;39.60;;;;;;5065796;28;20193;-84
2023/01/11 12:15:24;;;;;;;1.10;1.00;;;11.40;41.00;;;;;;5062470;28;20197;-84
2023/01/11 12:17:54;;;;;;;3.75;1.00;;;11.40;41.60;;;;;;5066618;28;20201;-83
2023/01/11 12:20:31;;;;;;;1.33;1.20;;;11.30;43.80;;;;;;5060485;28;20200;-85
2023/01/11 12:23:14;;;;;;;1.33;1.10;;;11.40;42.50;;;;;;5065240;28;20236;-84
2023/01/11 12:25:53;;;;;;;1.27;1.17;;;11.40;44.90;;;;;;5055507;28;20210;-83
2023/01/11 12:28:29;;;;;;;1.38;1.13;;;11.40;42.80;;;;;;5068027;28;20205;-85
2023/01/11 12:31:04;;;;;;;2.38;1.20;;;11.50;42.50;;;;;;5074871;28;20233;-85
2023/01/11 12:33:43;;;;;;;3.45;1.33;;;11.40;44.50;;;;;;5059927;28;20208;-85
2023/01/11 12:36:23;;;;;;;3.10;1.48;;;11.50;43.50;;;;;;5068626;28;20233;-84
2023/01/11 12:39:04;;;;;;;1.45;1.17;;;11.50;46.40;;;;;;5063566;28;20266;-84
2023/01/11 12:41:52;;;;;;;1.20;1.10;;;11.50;44.20;;;;;;5069243;28;20221;-84
2023/01/11 12:44:35;;;;;;;2.83;1.58;;;11.60;44.20;;;;;;5070171;28;20280;-84
2023/01/11 12:47:14;;;;;;;4.88;1.50;;;11.50;43.90;;;;;;5069933;28;20208;-85
2023/01/11 12:49:50;;;;;;;1.88;1.40;;;11.50;45.70;;;;;;5068485;28;20224;-85
2023/01/11 12:52:41;;;;;;;2.50;1.75;;;11.40;45.30;;;;;;5060480;28;20221;-84
2023/01/11 12:55:32;;;;;;;1.50;1.40;;;11.30;46.00;;;;;;5065351;28;20635;-85
2023/01/11 12:58:07;;;;;;;3.75;1.40;;;11.30;47.90;;;;;;5068758;28;20288;-85
2023/01/11 13:01:06;;;;;;;3.47;1.58;;;11.20;47.90;;;;;;5066416;28;20219;-84
2023/01/11 13:04:07;;;;;;;4.72;1.25;;;11.30;47.90;;;;;;5068159;28;20212;-84
2023/01/11 13:06:40;;;;;;;2.30;1.70;;;11.20;47.80;;;;;;5068485;28;20196;-85
2023/01/11 13:09:14;;;;;;;3.40;1.58;;;11.20;47.80;;;;;;5066991;28;20598;-84
2023/01/11 13:11:52;;;;;;;1.80;1.60;;;11.10;47.80;;;;;;5067517;28;20712;-84
2023/01/11 13:14:38;;;;;;;3.42;2.15;;;11.10;48.40;;;;;;5064717;28;20656;-84
2023/01/11 13:17:13;;;;;;;8.25;2.50;;;11.00;50.30;;;;;;5064918;28;20305;-86
2023/01/11 13:19:48;;;;;;;3.45;1.58;;;10.90;51.50;;;;;;5063416;28;20219;-84
2023/01/11 13:22:18;;;;;;;6.05;1.77;;;10.90;51.10;;;;;;5066911;28;20209;-84
2023/01/11 13:24:47;;;;;;;2.22;1.60;;;10.90;52.10;;;;;;5060808;28;20205;-85
2023/01/11 13:27:21;;;;;;;3.50;1.65;;;10.90;51.40;;;;;;5069049;28;20197;-83
2023/01/11 13:29:50;;;;;;;2.42;1.95;;;10.90;51.70;;;;;;5067928;28;20201;-84
2023/01/11 13:32:20;;;;;;;5.20;1.70;;;10.80;52.50;;;;;;5065056;28;20565;-85
2023/01/11 13:34:51;;;;;;;2.88;1.70;;;10.90;53.70;;;;;;5060333;28;20208;-85
2023/01/11 13:37:25;;;;;;;2.28;1.70;;;11.00;54.30;;;;;;5062736;28;20204;-85
2023/01/11 13:39:57;;;;;;;1.90;1.40;;;10.90;53.80;;;;;;5061051;28;20197;-84
2023/01/11 13:42:33;;;;;;;1.80;1.30;;;10.90;56.10;;;;;;5062903;28;20224;-84
2023/01/11 13:45:07;;;;;;;2.22;1.33;;;10.90;56.00;;;;;;5060304;28;20212;-83
2023/01/11 13:47:37;;;;;;;1.70;1.30;;;10.80;55.90;;;;;;5053202;28;20666;-84
2023/01/11 13:50:11;;;;;;;1.73;1.23;;;10.90;55.60;;;;;;5062360;28;20213;-85
2023/01/11 13:52:48;;;;;;;1.65;1.42;;;11.00;55.60;;;;;;5060140;28;20232;-85
2023/01/11 13:55:19;;;;;;;1.40;1.30;;;10.90;56.60;;;;;;5061105;28;20205;-84